Time;durP1;ratioP1;P1;durP2;ratioP2;P2;SDS_P1;SDS_P2;PMS_P1;PMS_P2;Temp;Humidity;BMP_temperature;BMP_pressure;BME280_temperature;BME280_humidity;BME280_pressure;Samples;Min_cycle;Max_cycle;Signal;HPM_P1;HPM_P2
2021/01/16 00:00:20;;;;;;;4.32;2.10;;;-2.20;99.90;;;;;;4878614;28;20096;-91
2021/01/16 00:02:43;;;;;;;4.25;1.77;;;-2.10;99.90;;;;;;4891086;28;20627;-91
2021/01/16 00:05:07;;;;;;;9.65;1.80;;;-2.20;99.90;;;;;;4886275;28;20092;-91
2021/01/16 00:07:32;;;;;;;3.35;1.52;;;-2.20;99.90;;;;;;4883946;28;20122;-90
2021/01/16 00:09:55;;;;;;;4.75;1.70;;;-2.20;99.90;;;;;;4890334;28;20121;-94
2021/01/16 00:12:18;;;;;;;3.80;2.05;;;-2.20;99.90;;;;;;4879255;28;20099;-93
2021/01/16 00:14:42;;;;;;;5.78;1.60;;;-2.20;99.90;;;;;;4884156;28;20483;-90
2021/01/16 00:17:06;;;;;;;8.63;2.25;;;-2.20;99.90;;;;;;4888271;28;20118;-90
2021/01/16 00:19:31;;;;;;;6.78;2.13;;;-2.20;99.90;;;;;;4885002;28;20144;-92
2021/01/16 00:21:54;;;;;;;5.53;1.85;;;-2.20;99.90;;;;;;4890250;28;20118;-90
2021/01/16 00:24:17;;;;;;;3.70;1.77;;;-2.20;99.90;;;;;;4892655;28;20183;-92
2021/01/16 00:26:47;;;;;;;4.13;1.90;;;-2.10;99.90;;;;;;4873283;28;20092;-92
2021/01/16 00:29:10;;;;;;;4.60;2.00;;;-2.20;99.90;;;;;;4859728;28;20095;-88
2021/01/16 00:31:34;;;;;;;5.60;2.20;;;;;;;;;;4892595;28;20111;-93
2021/01/16 00:34:01;;;;;;;3.30;1.48;;;-2.10;99.90;;;;;;4894034;28;20183;-92
2021/01/16 00:36:27;;;;;;;2.88;1.80;;;-2.20;99.90;;;;;;4894418;28;20559;-90
2021/01/16 00:38:51;;;;;;;4.32;2.28;;;-2.20;99.90;;;;;;4887678;28;20086;-92
2021/01/16 00:41:15;;;;;;;5.80;2.30;;;-2.20;99.90;;;;;;4887292;28;20103;-88
2021/01/16 00:43:40;;;;;;;3.08;1.60;;;-2.10;99.90;;;;;;4877974;28;20098;-90
2021/01/16 00:46:04;;;;;;;5.72;2.33;;;-2.10;99.90;;;;;;4892591;28;20097;-92
2021/01/16 00:48:28;;;;;;;3.33;1.80;;;-2.10;99.90;;;;;;4885871;28;20751;-92
2021/01/16 00:51:02;;;;;;;10.05;1.80;;;-2.10;99.90;;;;;;4893853;28;20118;-92
2021/01/16 00:53:26;;;;;;;4.95;2.78;;;-2.10;99.90;;;;;;4885020;28;20606;-92
2021/01/16 00:55:53;;;;;;;5.03;2.20;;;-2.10;99.90;;;;;;4887704;28;20083;-92
2021/01/16 00:58:18;;;;;;;6.95;2.63;;;-2.10;99.90;;;;;;4887440;28;20108;-92
2021/01/16 01:00:50;;;;;;;7.32;1.90;;;-2.10;99.90;;;;;;4894143;28;20581;-93
2021/01/16 01:03:16;;;;;;;3.33;1.90;;;-2.10;99.90;;;;;;4883294;28;20193;-91
2021/01/16 01:05:40;;;;;;;6.25;2.47;;;;;;;;;;4886680;28;20130;-91
2021/01/16 01:08:04;;;;;;;10.13;2.25;;;;;;;;;;4884516;28;20130;-92
2021/01/16 01:10:31;;;;;;;7.13;2.25;;;-2.10;99.90;;;;;;4894235;28;20105;-92
2021/01/16 01:13:02;;;;;;;5.00;2.20;;;-2.10;99.90;;;;;;4880736;28;20151;-92
2021/01/16 01:15:32;;;;;;;6.60;2.20;;;-2.10;99.90;;;;;;4887120;28;20170;-92
2021/01/16 01:17:57;;;;;;;11.25;3.67;;;-2.10;99.90;;;;;;4888349;28;20169;-92
2021/01/16 01:20:23;;;;;;;5.82;2.40;;;-2.10;99.90;;;;;;4887835;28;20088;-93
2021/01/16 01:22:48;;;;;;;7.65;3.13;;;;;;;;;;4887756;28;20102;-93
2021/01/16 01:25:12;;;;;;;6.35;2.58;;;-2.10;99.90;;;;;;4887350;28;20094;-92
2021/01/16 01:27:35;;;;;;;5.43;2.17;;;-2.10;99.90;;;;;;4891320;28;20102;-89
2021/01/16 01:29:59;;;;;;;6.90;2.90;;;-2.00;99.90;;;;;;4890896;28;20103;-92
2021/01/16 01:32:22;;;;;;;6.80;2.10;;;-2.00;99.90;;;;;;4892822;28;20246;-92
2021/01/16 01:34:47;;;;;;;4.55;1.85;;;-2.00;99.90;;;;;;4893844;28;20096;-90
2021/01/16 01:37:11;;;;;;;4.72;1.98;;;-2.10;99.90;;;;;;4892987;28;20095;-93
2021/01/16 01:39:40;;;;;;;5.15;2.10;;;-2.10;99.90;;;;;;4887882;28;20118;-90
2021/01/16 01:42:14;;;;;;;4.05;2.25;;;-2.10;99.90;;;;;;4893082;28;20090;-92
2021/01/16 01:44:43;;;;;;;4.20;1.90;;;-2.00;99.90;;;;;;4884458;28;20164;-92
2021/01/16 01:47:15;;;;;;;5.07;1.95;;;-2.00;99.90;;;;;;4892188;28;20095;-93
2021/01/16 01:49:38;;;;;;;5.78;2.63;;;-2.00;99.90;;;;;;4890074;28;20147;-93
2021/01/16 01:52:02;;;;;;;3.65;2.08;;;-2.10;99.90;;;;;;4889244;28;20121;-92
2021/01/16 01:54:28;;;;;;;5.25;1.73;;;-2.00;99.90;;;;;;4891999;28;20090;-92
2021/01/16 01:57:14;;;;;;;3.10;1.83;;;-2.10;99.90;;;;;;4892680;28;20092;-92
2021/01/16 01:59:38;;;;;;;3.25;1.75;;;-2.10;99.90;;;;;;4885674;28;20597;-92
2021/01/16 02:02:04;;;;;;;3.95;1.67;;;-2.10;99.90;;;;;;4888018;28;20114;-93
2021/01/16 02:04:29;;;;;;;;;;;-2.10;99.90;;;;;;4891814;28;20099;-92
2021/01/16 02:06:54;;;;;;;4.30;1.77;;;-2.10;99.90;;;;;;4891091;28;20018;-92
2021/01/16 02:09:23;;;;;;;4.40;1.70;;;;;;;;;;4890399;28;20118;-92
2021/01/16 02:11:47;;;;;;;3.38;1.90;;;;;;;;;;4887689;28;20090;-88
2021/01/16 02:14:11;;;;;;;5.53;2.08;;;;;;;;;;4867985;28;20103;-93
2021/01/16 02:16:43;;;;;;;11.13;2.13;;;-2.10;99.90;;;;;;4879783;28;20557;-92
2021/01/16 02:19:13;;;;;;;6.03;2.20;;;-2.00;99.90;;;;;;4876731;28;20097;-92
2021/01/16 02:21:44;;;;;;;6.45;2.72;;;-2.10;99.90;;;;;;4885973;28;20103;-93
2021/01/16 02:24:12;;;;;;;5.47;2.25;;;;;;;;;;4889671;28;20103;-93
2021/01/16 02:27:04;;;;;;;6.35;2.63;;;-2.10;99.90;;;;;;4878226;28;20147;-93
2021/01/16 02:29:31;;;;;;;5.32;2.50;;;-2.10;99.90;;;;;;4884057;28;20098;-91
2021/01/16 02:32:00;;;;;;;7.65;3.00;;;-2.10;99.90;;;;;;4886190;28;20142;-93
2021/01/16 02:34:27;;;;;;;8.30;2.45;;;-2.00;99.90;;;;;;4882309;28;20099;-93
2021/01/16 02:37:26;;;;;;;6.82;2.42;;;-2.00;99.90;;;;;;4881021;28;20099;-92
2021/01/16 02:40:02;;;;;;;6.30;2.72;;;-2.10;99.90;;;;;;4803821;28;20097;-88
2021/01/16 02:42:37;;;;;;;12.90;3.15;;;-2.10;99.90;;;;;;4877452;28;20186;-94
2021/01/16 02:45:12;;;;;;;5.25;2.47;;;-2.10;99.90;;;;;;4879046;28;20090;-93
2021/01/16 02:47:48;;;;;;;7.85;2.75;;;-2.00;99.90;;;;;;4886000;28;20094;-92
2021/01/16 02:50:19;;;;;;;5.05;2.47;;;-2.10;99.90;;;;;;4879812;28;20102;-91
2021/01/16 02:52:50;;;;;;;5.80;2.50;;;-2.10;99.90;;;;;;4888887;28;20092;-93
2021/01/16 02:55:17;;;;;;;10.43;2.95;;;-2.10;99.90;;;;;;4878370;28;20095;-93
2021/01/16 02:57:49;;;;;;;8.85;2.78;;;-2.10;99.90;;;;;;4872219;28;20124;-93
2021/01/16 03:00:16;;;;;;;5.82;2.88;;;-2.10;99.90;;;;;;4887950;28;20590;-93
2021/01/16 03:02:41;;;;;;;9.80;2.40;;;-2.10;99.90;;;;;;4890283;28;20173;-93
2021/01/16 03:05:05;;;;;;;8.27;2.78;;;-2.10;99.90;;;;;;4890923;28;20517;-93
2021/01/16 03:07:32;;;;;;;6.70;2.85;;;-2.10;99.90;;;;;;4887161;28;20098;-92
2021/01/16 03:09:58;;;;;;;8.70;3.30;;;-2.10;99.90;;;;;;4890558;28;20093;-93
2021/01/16 03:12:23;;;;;;;10.55;3.38;;;-2.10;99.90;;;;;;4880998;28;20117;-93
2021/01/16 03:14:52;;;;;;;5.40;2.38;;;-2.10;99.90;;;;;;4885208;28;20548;-94
2021/01/16 03:17:18;;;;;;;6.00;2.42;;;-2.10;99.90;;;;;;4868867;28;20649;-93
2021/01/16 03:19:45;;;;;;;6.05;2.72;;;-2.10;99.90;;;;;;4870500;28;20625;-92
2021/01/16 03:22:24;;;;;;;8.45;2.33;;;-2.10;99.90;;;;;;4891139;28;20090;-89
2021/01/16 03:24:48;;;;;;;6.35;2.25;;;-2.00;99.90;;;;;;4882565;28;20090;-87
2021/01/16 03:27:14;;;;;;;4.93;2.20;;;-2.00;99.90;;;;;;4840412;28;20120;-93
2021/01/16 03:29:44;;;;;;;8.80;2.45;;;-2.00;99.90;;;;;;4885246;28;20127;-94
2021/01/16 03:32:10;;;;;;;7.28;3.10;;;-2.00;99.90;;;;;;4877918;28;20536;-92
2021/01/16 03:34:34;;;;;;;6.60;2.58;;;-2.00;99.90;;;;;;4876028;28;20104;-92
2021/01/16 03:36:57;;;;;;;7.22;2.80;;;-2.00;99.90;;;;;;4876620;28;20104;-92
2021/01/16 03:39:23;;;;;;;5.22;2.38;;;-2.00;99.90;;;;;;4881163;28;20093;-92
2021/01/16 03:41:47;;;;;;;5.07;2.40;;;-2.00;99.90;;;;;;4886136;28;20090;-92
2021/01/16 03:44:11;;;;;;;6.47;2.70;;;-2.00;99.90;;;;;;4882205;28;20098;-92
2021/01/16 03:46:37;;;;;;;3.72;2.25;;;-2.00;99.90;;;;;;4879982;28;20529;-92
2021/01/16 03:49:07;;;;;;;6.97;2.33;;;-2.00;99.90;;;;;;4885635;28;20096;-93
2021/01/16 03:51:31;;;;;;;6.10;2.33;;;-2.00;99.90;;;;;;4872072;28;20098;-92
2021/01/16 03:53:55;;;;;;;8.52;2.60;;;-2.10;99.90;;;;;;4886450;28;20113;-93
2021/01/16 03:56:20;;;;;;;6.00;2.60;;;-2.10;99.90;;;;;;4872316;28;20156;-93
2021/01/16 03:58:47;;;;;;;5.88;2.55;;;-2.10;99.90;;;;;;4875742;28;20124;-91
2021/01/16 04:01:10;;;;;;;7.10;2.63;;;-2.10;99.90;;;;;;4883774;28;20093;-90
2021/01/16 04:03:34;;;;;;;6.85;2.55;;;-2.10;99.90;;;;;;4875575;28;20174;-93
2021/01/16 04:05:56;;;;;;;7.82;2.85;;;-2.10;99.90;;;;;;4885878;28;20107;-92
2021/01/16 04:08:24;;;;;;;6.75;3.15;;;-2.10;99.90;;;;;;4877240;28;20095;-92
2021/01/16 04:10:52;;;;;;;8.90;2.97;;;-2.20;99.90;;;;;;4874922;28;20173;-94
2021/01/16 04:13:16;;;;;;;4.95;2.58;;;-2.20;99.90;;;;;;4880448;28;20542;-91
2021/01/16 04:15:39;;;;;;;5.35;2.38;;;;;;;;;;4877915;28;20092;-92
2021/01/16 04:18:08;;;;;;;5.78;2.45;;;-2.20;99.90;;;;;;4877281;28;20179;-92
2021/01/16 04:20:34;;;;;;;8.13;2.35;;;;;;;;;;4861706;28;21430;-92
2021/01/16 04:22:58;;;;;;;7.68;2.92;;;-2.20;99.90;;;;;;4839749;28;20093;-92
2021/01/16 04:25:22;;;;;;;6.25;2.97;;;-2.20;99.90;;;;;;4869092;28;20092;-91
2021/01/16 04:27:54;;;;;;;9.60;2.60;;;-2.20;99.90;;;;;;4876617;28;20122;-92
2021/01/16 04:30:18;;;;;;;8.18;3.45;;;-2.20;99.90;;;;;;4876006;28;20126;-93
2021/01/16 04:32:42;;;;;;;8.35;3.45;;;-2.20;99.90;;;;;;4876205;28;20132;-91
2021/01/16 04:35:05;;;;;;;7.07;2.47;;;-2.20;99.90;;;;;;4877806;28;20107;-91
2021/01/16 04:37:30;;;;;;;8.23;2.78;;;-2.20;99.90;;;;;;4881716;28;20149;-91
2021/01/16 04:39:55;;;;;;;6.53;2.88;;;-2.20;99.90;;;;;;4873356;28;20547;-87
2021/01/16 04:42:21;;;;;;;8.60;2.60;;;-2.20;99.90;;;;;;4877787;28;20140;-92
2021/01/16 04:44:49;;;;;;;6.97;2.58;;;-2.10;99.90;;;;;;4883400;28;20131;-92
2021/01/16 04:47:23;;;;;;;6.82;2.47;;;-2.20;99.90;;;;;;4879256;28;20144;-93
2021/01/16 04:49:46;;;;;;;6.53;2.60;;;-2.20;99.90;;;;;;4883150;28;20094;-91
2021/01/16 04:52:13;;;;;;;4.57;2.10;;;-2.20;99.90;;;;;;4888217;28;20490;-92
2021/01/16 04:54:36;;;;;;;4.53;2.25;;;-2.20;99.90;;;;;;4882700;28;20145;-88
2021/01/16 04:57:00;;;;;;;6.05;2.45;;;-2.20;99.90;;;;;;4879492;28;20088;-91
2021/01/16 04:59:25;;;;;;;6.55;2.60;;;-2.20;99.90;;;;;;4871855;28;20480;-91
2021/01/16 05:01:48;;;;;;;4.90;2.40;;;-2.20;99.90;;;;;;4885938;28;20169;-91
2021/01/16 05:04:16;;;;;;;5.38;2.45;;;-2.20;99.90;;;;;;4884565;28;20092;-91
2021/01/16 05:06:40;;;;;;;10.07;2.33;;;-2.20;99.90;;;;;;4879797;28;20113;-92
2021/01/16 05:09:06;;;;;;;6.38;2.30;;;-2.10;99.90;;;;;;4884410;28;20176;-90
2021/01/16 05:11:36;;;;;;;5.75;2.80;;;-2.20;99.90;;;;;;4891925;28;20158;-89
2021/01/16 05:14:12;;;;;;;3.50;1.85;;;-2.20;99.90;;;;;;4877539;28;20099;-91
2021/01/16 05:16:49;;;;;;;6.75;2.45;;;-2.10;99.90;;;;;;4875812;28;20115;-92
2021/01/16 05:19:15;;;;;;;5.07;2.50;;;-2.10;99.90;;;;;;4881455;28;20491;-91
2021/01/16 05:21:38;;;;;;;4.20;2.10;;;-2.10;99.90;;;;;;4884603;28;20087;-91
2021/01/16 05:24:07;;;;;;;6.05;2.30;;;-2.20;99.90;;;;;;4865414;28;20095;-92
2021/01/16 05:26:34;;;;;;;5.22;2.30;;;-2.20;99.90;;;;;;4889808;28;20190;-92
2021/01/16 05:29:08;;;;;;;6.45;1.95;;;-2.20;99.90;;;;;;4880109;28;20096;-92
2021/01/16 05:31:32;;;;;;;7.00;2.30;;;-2.20;99.90;;;;;;4881400;28;20091;-90
2021/01/16 05:34:00;;;;;;;4.75;2.10;;;-2.20;99.90;;;;;;4888766;28;20126;-90
2021/01/16 05:36:23;;;;;;;6.63;2.65;;;-2.30;99.90;;;;;;4875156;28;20166;-90
2021/01/16 05:38:49;;;;;;;7.43;3.10;;;-0.70;99.90;;;;;;4870484;28;20102;-93
2021/01/16 05:41:14;;;;;;;6.00;2.70;;;-2.40;99.90;;;;;;4887122;28;20094;-91
2021/01/16 05:43:40;;;;;;;7.55;3.10;;;-2.30;99.90;;;;;;4879547;28;20156;-91
2021/01/16 05:46:12;;;;;;;6.15;2.10;;;-2.30;99.90;;;;;;4876902;28;20117;-91
2021/01/16 05:48:38;;;;;;;4.68;2.22;;;-2.30;99.90;;;;;;4883768;28;20094;-92
2021/01/16 05:51:05;;;;;;;7.82;2.55;;;-2.40;99.90;;;;;;4888612;28;20122;-92
2021/01/16 05:53:30;;;;;;;4.85;2.47;;;-2.30;99.90;;;;;;4884154;28;20123;-91
2021/01/16 05:55:53;;;;;;;8.60;3.50;;;-2.30;99.90;;;;;;4875575;28;20114;-91
2021/01/16 05:58:19;;;;;;;6.65;2.85;;;-2.30;99.90;;;;;;4891158;28;20162;-91
2021/01/16 06:00:49;;;;;;;8.43;3.50;;;-2.30;99.90;;;;;;4885621;28;20442;-92
2021/01/16 06:03:17;;;;;;;5.32;2.58;;;-2.30;99.90;;;;;;4884076;28;20098;-92
2021/01/16 06:05:48;;;;;;;7.20;2.83;;;-2.30;99.90;;;;;;4890340;28;20135;-91
2021/01/16 06:08:13;;;;;;;8.70;3.03;;;-2.30;99.90;;;;;;4891069;28;20100;-91
2021/01/16 06:10:36;;;;;;;8.43;3.10;;;-2.40;99.90;;;;;;4884397;28;20134;-91
2021/01/16 06:13:13;;;;;;;7.22;3.00;;;-2.40;99.90;;;;;;4879544;28;20522;-90
2021/01/16 06:15:44;;;;;;;8.00;2.60;;;-2.40;99.90;;;;;;4888473;28;20090;-88
2021/01/16 06:18:12;;;;;;;7.35;2.63;;;-2.40;99.90;;;;;;4882807;28;20118;-90
2021/01/16 06:20:38;;;;;;;9.35;3.45;;;-2.40;99.90;;;;;;4872079;28;20173;-87
2021/01/16 06:23:14;;;;;;;8.50;3.67;;;-2.40;99.90;;;;;;4891089;28;20148;-90
2021/01/16 06:25:47;;;;;;;6.47;3.00;;;-2.50;99.90;;;;;;4888050;28;20504;-89
2021/01/16 06:28:16;;;;;;;8.90;3.33;;;-2.40;99.90;;;;;;4889025;28;20117;-92
2021/01/16 06:30:40;;;;;;;6.45;3.10;;;-2.40;99.90;;;;;;4879980;28;20095;-91
2021/01/16 06:33:05;;;;;;;7.00;3.15;;;-2.40;99.90;;;;;;4886356;28;20106;-91
2021/01/16 06:35:29;;;;;;;;;;;-2.40;99.90;;;;;;4887574;28;20104;-90
2021/01/16 06:37:53;;;;;;;7.20;3.10;;;-2.40;99.90;;;;;;4865368;28;20418;-87
2021/01/16 06:40:29;;;;;;;8.45;3.60;;;-2.30;99.90;;;;;;4880266;28;20134;-91
2021/01/16 06:43:01;;;;;;;6.63;2.88;;;-2.30;99.90;;;;;;4888395;28;20117;-91
2021/01/16 06:45:27;;;;;;;5.35;2.80;;;;;;;;;;4878474;28;20139;-90
2021/01/16 06:47:56;;;;;;;7.57;3.50;;;-2.30;99.90;;;;;;4888758;28;20184;-91
2021/01/16 06:50:21;;;;;;;6.95;2.97;;;-2.30;99.90;;;;;;4891035;28;20094;-86
2021/01/16 06:52:44;;;;;;;9.55;3.80;;;-2.30;99.90;;;;;;4878393;28;20104;-90
2021/01/16 06:55:09;;;;;;;10.60;3.67;;;;;;;;;;4889796;28;20094;-91
2021/01/16 06:57:32;;;;;;;9.48;3.75;;;;;;;;;;4867514;28;20102;-91
2021/01/16 06:59:59;;;;;;;7.75;3.40;;;-2.20;99.90;;;;;;4889565;28;20098;-91
2021/01/16 07:02:31;;;;;;;11.82;3.90;;;-2.20;99.90;;;;;;4887962;28;20095;-90
2021/01/16 07:04:59;;;;;;;9.35;3.55;;;-2.20;99.90;;;;;;4883075;28;20091;-89
2021/01/16 07:07:29;;;;;;;9.73;4.05;;;-2.10;99.90;;;;;;4886313;28;20177;-90
2021/01/16 07:09:56;;;;;;;12.15;4.47;;;-2.10;99.90;;;;;;4888549;28;20094;-90
2021/01/16 07:12:30;;;;;;;8.35;4.03;;;-2.10;99.90;;;;;;4891384;28;20098;-92
2021/01/16 07:14:55;;;;;;;10.50;3.45;;;-2.10;99.90;;;;;;4883071;28;20443;-90
2021/01/16 07:17:23;;;;;;;8.23;3.55;;;-2.10;99.90;;;;;;4883824;28;20089;-89
2021/01/16 07:19:47;;;;;;;10.15;3.50;;;-2.10;99.90;;;;;;4884332;28;20110;-90
2021/01/16 07:22:13;;;;;;;7.53;3.17;;;-2.10;99.90;;;;;;4888802;28;20121;-90
2021/01/16 07:24:40;;;;;;;10.55;4.63;;;-2.10;99.90;;;;;;4874105;28;20119;-90
2021/01/16 07:27:14;;;;;;;9.20;3.85;;;-2.20;99.90;;;;;;4891063;28;20180;-88
2021/01/16 07:29:43;;;;;;;11.88;3.88;;;-2.10;99.90;;;;;;4887687;28;20176;-91
2021/01/16 07:32:15;;;;;;;8.90;3.67;;;-2.20;99.90;;;;;;4868945;28;20086;-91
2021/01/16 07:34:40;;;;;;;16.13;4.10;;;-2.20;99.90;;;;;;4887209;28;20097;-90
2021/01/16 07:37:06;;;;;;;9.73;4.53;;;-2.20;99.90;;;;;;4879810;28;20095;-88
2021/01/16 07:39:40;;;;;;;12.20;4.20;;;-2.20;99.90;;;;;;4889624;28;20102;-87
2021/01/16 07:42:11;;;;;;;6.50;3.28;;;-2.10;99.90;;;;;;4880264;28;20517;-91
2021/01/16 07:44:44;;;;;;;10.55;3.53;;;-2.10;99.90;;;;;;4875500;28;20532;-90
2021/01/16 07:47:18;;;;;;;7.43;3.10;;;-2.00;99.90;;;;;;4888513;28;20175;-88
2021/01/16 07:49:50;;;;;;;6.88;2.95;;;-1.90;99.90;;;;;;4886748;28;20180;-91
2021/01/16 07:52:22;;;;;;;6.63;2.70;;;-1.80;99.90;;;;;;4883821;28;20494;-91
2021/01/16 07:54:55;;;;;;;7.85;2.78;;;-1.80;99.90;;;;;;4887853;28;20457;-86
2021/01/16 07:57:30;;;;;;;7.97;2.67;;;-1.70;99.90;;;;;;4880269;28;20193;-88
2021/01/16 08:00:08;;;;;;;6.15;2.97;;;-1.70;99.90;;;;;;4884435;28;20174;-89
2021/01/16 08:02:49;;;;;;;6.75;1.75;;;-1.60;99.90;;;;;;4887878;28;20092;-91
2021/01/16 08:05:32;;;;;;;3.22;1.58;;;-1.60;99.90;;;;;;4875621;28;20137;-90
2021/01/16 08:08:35;;;;;;;4.45;1.60;;;-1.60;99.90;;;;;;4876825;28;20095;-89
2021/01/16 08:11:11;;;;;;;1.90;1.00;;;-1.60;99.90;;;;;;4878076;28;20191;-91
2021/01/16 08:13:40;;;;;;;4.18;1.33;;;-1.60;99.90;;;;;;4892751;28;20117;-90
2021/01/16 08:16:04;;;;;;;8.77;2.47;;;-1.60;99.90;;;;;;4885789;28;20095;-91
2021/01/16 08:18:33;;;;;;;3.15;1.45;;;-1.60;99.90;;;;;;4889763;28;20091;-86
2021/01/16 08:21:08;;;;;;;3.58;1.60;;;-1.60;99.90;;;;;;4884075;28;20096;-86
2021/01/16 08:23:47;;;;;;;2.00;0.97;;;-1.60;99.90;;;;;;4881442;28;20505;-92
2021/01/16 08:26:11;;;;;;;5.43;1.20;;;-1.60;99.90;;;;;;4883551;28;20539;-94
2021/01/16 08:28:50;;;;;;;3.97;0.82;;;-1.60;99.90;;;;;;4863309;28;20091;-91
2021/01/16 08:31:51;;;;;;;2.00;1.08;;;-1.50;99.90;;;;;;4891620;28;20115;-92
2021/01/16 08:34:44;;;;;;;5.97;2.00;;;-1.50;99.90;;;;;;4892322;28;20140;-90
2021/01/16 08:37:31;;;;;;;2.90;1.50;;;-1.50;99.90;;;;;;4889621;28;20143;-91
2021/01/16 08:39:54;;;;;;;6.15;2.22;;;-1.50;99.90;;;;;;4892180;28;20095;-88
2021/01/16 08:42:25;;;;;;;6.25;2.17;;;-1.50;99.90;;;;;;4885714;28;20104;-90
2021/01/16 08:44:57;;;;;;;6.38;2.40;;;-1.50;99.90;;;;;;4886715;28;20926;-87
2021/01/16 08:47:26;;;;;;;7.15;2.65;;;-1.50;99.90;;;;;;4892852;28;20565;-87
2021/01/16 08:49:50;;;;;;;4.43;2.08;;;-1.50;99.90;;;;;;4871313;28;20130;-87
2021/01/16 08:55:07;;;;;;;4.28;2.20;;;-1.50;99.90;;;;;;4932746;27;20658;-91
2021/01/16 08:57:32;;;;;;;7.43;1.67;;;-1.60;99.90;;;;;;4948756;27;20823;-91
2021/01/16 08:59:55;;;;;;;6.57;2.10;;;;;;;;;;4947404;27;20122;-85
2021/01/16 09:02:27;;;;;;;3.38;1.33;;;-1.60;99.90;;;;;;4919385;27;20121;-87
2021/01/16 09:05:07;;;;;;;3.80;1.55;;;-1.70;99.90;;;;;;4894889;27;20100;-92
2021/01/16 09:07:49;;;;;;;2.63;1.65;;;-1.80;99.90;;;;;;4891680;27;20500;-88
2021/01/16 09:10:31;;;;;;;3.03;1.23;;;-2.00;99.90;;;;;;4889638;27;20148;-88
2021/01/16 09:13:22;;;;;;;3.05;0.80;;;-2.10;99.90;;;;;;4896251;27;20116;-91
2021/01/16 09:16:00;;;;;;;2.40;1.20;;;-2.10;99.90;;;;;;4905445;27;20098;-91
2021/01/16 09:18:57;;;;;;;5.40;2.00;;;-2.20;99.90;;;;;;4896068;27;20119;-89
2021/01/16 09:21:34;;;;;;;5.43;1.25;;;-2.20;99.90;;;;;;4888165;27;20104;-90
2021/01/16 09:24:33;;;;;;;2.25;0.80;;;-2.30;99.90;;;;;;4894872;27;20139;-92
2021/01/16 09:27:25;;;;;;;2.95;1.23;;;-2.30;99.90;;;;;;4891297;27;20095;-91
2021/01/16 09:29:56;;;;;;;4.15;1.10;;;-2.30;99.90;;;;;;4947924;27;21199;-92
2021/01/16 09:36:08;;;;;;;8.98;1.00;;;-2.20;99.90;;;;;;4890787;27;20091;-92
2021/01/16 09:38:41;;;;;;;2.90;1.55;;;-1.90;99.90;;;;;;4888206;27;20089;-89
2021/01/16 09:48:09;;;;;;;2.10;1.02;;;-1.80;99.90;;;;;;4890049;27;20894;-92
2021/01/16 10:01:01;;;;;;;3.05;1.20;;;-1.70;99.90;;;;;;4897866;27;20178;-94
2021/01/16 10:03:37;;;;;;;2.30;1.15;;;-1.70;99.90;;;;;;4899654;27;20098;-91
2021/01/16 10:50:26;;;;;;;2.83;1.23;;;-1.50;99.90;;;;;;4908088;27;20102;-82
2021/01/16 10:56:34;;;;;;;3.15;1.38;;;-1.50;99.90;;;;;;4927441;27;20098;-79
2021/01/16 10:59:12;;;;;;;3.38;1.33;;;-1.50;99.90;;;;;;4931323;27;20098;-81
2021/01/16 11:01:45;;;;;;;2.92;1.42;;;-1.50;99.90;;;;;;4923732;27;20096;-78
2021/01/16 11:04:21;;;;;;;4.55;0.90;;;-1.50;99.90;;;;;;4932086;27;20098;-81
2021/01/16 11:06:47;;;;;;;;;;;-1.40;99.90;;;;;;4928356;27;20096;-79
2021/01/16 11:09:43;;;;;;;4.28;1.58;;;-1.40;99.90;;;;;;4932303;27;19977;-80
2021/01/16 11:12:09;;;;;;;2.43;1.20;;;-1.40;99.90;;;;;;4928106;27;20094;-81
2021/01/16 11:14:34;;;;;;;2.55;1.17;;;-1.40;99.90;;;;;;4932471;27;20156;-80
2021/01/16 11:16:59;;;;;;;3.63;1.80;;;-1.50;99.90;;;;;;4930885;27;20213;-81
2021/01/16 11:19:29;;;;;;;3.05;1.40;;;-1.50;99.90;;;;;;4932820;27;20098;-80
2021/01/16 11:21:57;;;;;;;2.05;0.70;;;-1.50;99.90;;;;;;4920144;27;20095;-80
2021/01/16 11:25:06;;;;;;;4.43;1.40;;;-1.50;99.90;;;;;;4932337;27;20140;-81
2021/01/16 11:27:31;;;;;;;2.75;1.17;;;;;;;;;;4901607;28;20086;-81
2021/01/16 11:30:04;;;;;;;2.30;1.02;;;-1.40;99.90;;;;;;4912782;28;20110;-80
2021/01/16 11:32:34;;;;;;;2.80;1.15;;;-1.30;99.90;;;;;;4907374;28;20113;-80
2021/01/16 11:35:11;;;;;;;2.53;0.88;;;-1.30;99.90;;;;;;4926546;27;20207;-80
2021/01/16 11:37:48;;;;;;;5.45;1.35;;;-1.30;99.90;;;;;;4931551;27;20091;-80
2021/01/16 11:40:28;;;;;;;3.47;1.70;;;-1.30;99.90;;;;;;4929304;27;20120;-80
2021/01/16 11:42:54;;;;;;;4.03;1.63;;;-1.30;99.90;;;;;;4929471;27;20118;-81
2021/01/16 11:45:17;;;;;;;2.97;1.35;;;-1.30;99.90;;;;;;4917559;27;20661;-81
2021/01/16 11:47:48;;;;;;;2.80;1.27;;;;;;;;;;4929678;27;20550;-80
2021/01/16 11:50:13;;;;;;;2.33;1.45;;;-1.20;99.90;;;;;;4931959;27;20094;-80
2021/01/16 11:52:35;;;;;;;1.92;1.30;;;-1.30;99.90;;;;;;4931260;27;20099;-80
2021/01/16 11:55:07;;;;;;;1.95;1.05;;;-1.40;99.90;;;;;;4928006;27;20093;-80
2021/01/16 11:57:31;;;;;;;4.32;1.75;;;-1.30;99.90;;;;;;4930938;27;20094;-81
2021/01/16 11:59:57;;;;;;;6.45;1.70;;;-1.30;99.90;;;;;;4945004;27;20090;-81
2021/01/16 12:02:20;;;;;;;3.47;1.58;;;-1.40;99.90;;;;;;4920166;27;20096;-80
2021/01/16 12:04:45;;;;;;;2.60;1.85;;;-1.40;99.90;;;;;;4957650;27;20550;-80
2021/01/16 12:07:12;;;;;;;2.90;1.63;;;-1.40;99.90;;;;;;4930700;27;20103;-80
2021/01/16 12:09:39;;;;;;;3.03;1.52;;;-1.40;99.90;;;;;;4930282;27;20508;-81
2021/01/16 12:12:03;;;;;;;4.60;1.40;;;-1.50;99.90;;;;;;4927705;27;20181;-81
2021/01/16 12:14:37;;;;;;;2.63;1.27;;;-1.50;99.90;;;;;;4923359;27;20107;-80
2021/01/16 12:17:09;;;;;;;6.05;1.40;;;-1.50;99.90;;;;;;4928808;27;20442;-81
2021/01/16 12:19:34;;;;;;;4.65;1.95;;;-1.50;99.90;;;;;;4928287;27;20096;-81
2021/01/16 12:22:01;;;;;;;;;;;-1.50;99.90;;;;;;4932443;27;20138;-80
2021/01/16 12:24:26;;;;;;;3.55;0.88;;;-1.50;99.90;;;;;;4930833;27;19977;-80
2021/01/16 12:26:51;;;;;;;2.38;1.35;;;-1.50;99.90;;;;;;4910141;28;20102;-81
2021/01/16 12:29:23;;;;;;;1.05;0.73;;;-1.40;99.90;;;;;;4927551;28;20168;-81
2021/01/16 12:31:47;;;;;;;6.15;1.90;;;-1.40;99.90;;;;;;4925902;27;20174;-80
2021/01/16 12:34:11;;;;;;;3.75;1.58;;;-1.40;99.90;;;;;;4939656;27;20550;-79
2021/01/16 12:36:35;;;;;;;6.95;1.65;;;-1.40;99.90;;;;;;4943275;27;20088;-80
2021/01/16 12:38:59;;;;;;;1.67;1.02;;;-1.40;99.90;;;;;;4931182;27;20121;-81
2021/01/16 12:41:25;;;;;;;4.65;1.25;;;-1.40;99.90;;;;;;4930995;27;20127;-80
2021/01/16 12:43:49;;;;;;;2.65;1.38;;;-1.50;99.90;;;;;;4931660;27;20106;-81
2021/01/16 12:46:15;;;;;;;3.80;1.45;;;-1.50;99.90;;;;;;4931418;27;20203;-80
2021/01/16 12:48:39;;;;;;;3.35;1.08;;;-1.50;99.90;;;;;;4920168;27;20140;-80
2021/01/16 12:51:07;;;;;;;1.67;1.02;;;-1.50;99.90;;;;;;4930819;27;20102;-80
2021/01/16 12:53:31;;;;;;;1.95;0.70;;;-1.40;99.90;;;;;;4928921;27;20449;-81
2021/01/16 12:55:55;;;;;;;1.92;1.10;;;-0.10;99.90;;;;;;4931823;27;20085;-81
2021/01/16 12:58:18;;;;;;;11.93;1.23;;;-1.40;99.90;;;;;;4929943;27;20103;-80
2021/01/16 13:00:42;;;;;;;2.15;1.20;;;-1.50;99.90;;;;;;4930649;27;20101;-80
2021/01/16 13:03:06;;;;;;;2.13;0.80;;;-1.40;99.90;;;;;;4931164;27;20186;-80
2021/01/16 13:05:32;;;;;;;2.05;1.48;;;-1.40;99.90;;;;;;4941293;27;20094;-80
2021/01/16 13:07:59;;;;;;;3.50;1.67;;;-1.50;99.90;;;;;;4919106;27;20105;-81
2021/01/16 13:10:22;;;;;;;2.55;1.17;;;-1.50;99.90;;;;;;4922664;27;20106;-80
2021/01/16 13:12:45;;;;;;;15.82;1.50;;;-1.50;99.90;;;;;;4912440;28;20091;-81
2021/01/16 13:15:10;;;;;;;3.22;1.08;;;-1.60;99.90;;;;;;4911105;28;20094;-81
2021/01/16 13:17:41;;;;;;;7.23;0.90;;;-1.60;99.90;;;;;;4908910;28;20128;-80
2021/01/16 13:20:06;;;;;;;4.07;1.58;;;-1.60;99.90;;;;;;4927515;27;20091;-80
2021/01/16 13:22:29;;;;;;;3.45;1.48;;;-1.60;99.90;;;;;;4927702;27;20561;-80
2021/01/16 13:25:05;;;;;;;1.95;0.98;;;-1.50;99.90;;;;;;4929282;27;20250;-79
2021/01/16 13:27:31;;;;;;;2.92;1.42;;;-1.50;99.90;;;;;;4929026;27;20488;-79
2021/01/16 13:30:03;;;;;;;3.95;1.67;;;-1.50;99.90;;;;;;4929693;27;20544;-80
2021/01/16 13:32:27;;;;;;;2.55;1.42;;;-1.50;99.90;;;;;;4929007;27;20098;-79
2021/01/16 13:34:56;;;;;;;2.10;1.20;;;-1.60;99.90;;;;;;4926504;28;20094;-80
2021/01/16 13:37:22;;;;;;;1.95;1.30;;;-1.60;99.90;;;;;;4928587;28;20097;-80
2021/01/16 13:39:47;;;;;;;4.57;1.48;;;-1.60;99.90;;;;;;4928482;28;20550;-80
2021/01/16 13:42:20;;;;;;;3.75;1.40;;;-1.60;99.90;;;;;;4912663;28;20114;-79
2021/01/16 13:44:52;;;;;;;2.72;1.35;;;-1.60;99.90;;;;;;4932533;27;20587;-79
2021/01/16 13:47:16;;;;;;;2.17;1.45;;;-1.60;99.90;;;;;;4931887;27;20143;-80
2021/01/16 13:49:40;;;;;;;2.40;1.30;;;-1.60;99.90;;;;;;4934160;27;20142;-80
2021/01/16 13:52:05;;;;;;;2.47;1.73;;;-1.60;99.90;;;;;;4934982;27;20095;-80
2021/01/16 13:54:33;;;;;;;2.20;1.38;;;-1.60;99.90;;;;;;4933650;27;20089;-80
2021/01/16 13:56:55;;;;;;;3.55;1.60;;;-1.60;99.90;;;;;;4933814;27;20102;-80
2021/01/16 13:59:29;;;;;;;2.60;1.08;;;-1.60;99.90;;;;;;4915523;27;20508;-80
2021/01/16 14:01:53;;;;;;;2.38;1.15;;;-1.60;99.90;;;;;;4923431;27;20103;-80
2021/01/16 14:04:17;;;;;;;1.70;0.77;;;-1.60;99.90;;;;;;4931357;27;20107;-80
2021/01/16 14:06:52;;;;;;;8.40;1.30;;;-1.70;99.90;;;;;;4931724;27;20482;-80
2021/01/16 14:09:31;;;;;;;4.80;0.68;;;-1.70;99.90;;;;;;4914790;28;20110;-80
2021/01/16 14:11:57;;;;;;;1.90;0.98;;;-1.70;99.90;;;;;;4926158;27;22799;-80